Time,TemperatureF,DewpointF,PressureIn,WindDirection,WindDirectionDegrees,WindSpeedMPH,WindSpeedGustMPH,Humidity,HourlyPrecipIn,Conditions,Clouds,dailyrainin,SoftwareType,DateUTC
2013-07-13 00:01:00,81.7,47.2,29.80,WSW,256,0.0,0.0,30,0.00,,,0.00,WeatherCatV1.15B25,2013-07-13 05:01:00,
2013-07-13 00:06:00,81.3,46.9,29.80,WSW,256,0.0,0.0,30,0.00,,,0.00,WeatherCatV1.15B25,2013-07-13 05:06:00,
2013-07-13 00:11:00,81.1,47.6,29.80,WSW,256,0.0,0.0,31,0.00,,,0.00,WeatherCatV1.15B25,2013-07-13 05:11:00,
2013-07-13 00:16:00,81.0,47.5,29.80,WSW,256,0.0,0.0,31,0.00,,,0.00,WeatherCatV1.15B25,2013-07-13 05:16:00,
2013-07-13 00:21:00,80.6,47.1,29.80,WSW,256,0.0,0.0,31,0.00,,,0.00,WeatherCatV1.15B25,2013-07-13 05:21:00,
2013-07-13 00:26:00,80.8,48.1,29.80,WSW,256,0.0,0.0,32,0.00,,,0.00,WeatherCatV1.15B25,2013-07-13 05:26:00,
2013-07-13 00:31:00,80.4,48.7,29.80,WSW,256,0.0,0.0,33,0.00,,,0.00,WeatherCatV1.15B25,2013-07-13 05:31:00,
2013-07-13 00:36:00,80.2,48.5,29.80,WSW,256,0.0,0.0,33,0.00,,,0.00,WeatherCatV1.15B25,2013-07-13 05:36:00,
2013-07-13 00:41:00,79.9,49.0,29.80,WSW,256,0.0,0.0,34,0.00,,,0.00,WeatherCatV1.15B25,2013-07-13 05:41:00,
2013-07-13 00:46:00,79.7,48.8,29.80,WSW,256,0.0,0.0,34,0.00,,,0.00,WeatherCatV1.15B25,2013-07-13 05:46:00,
2013-07-13 00:51:00,79.5,49.4,29.80,WSW,256,0.0,0.0,35,0.00,,,0.00,WeatherCatV1.15B25,2013-07-13 05:51:00,
2013-07-13 00:56:00,79.3,50.0,29.80,WSW,256,0.0,0.0,36,0.00,,,0.00,WeatherCatV1.15B25,2013-07-13 05:56:00,
2013-07-13 01:01:00,79.7,51.8,29.80,WSW,256,0.0,0.0,38,0.00,,,0.00,WeatherCatV1.15B25,2013-07-13 06:01:00,
2013-07-13 01:06:00,79.9,52.0,29.80,WSW,256,0.0,0.0,38,0.00,,,0.00,WeatherCatV1.15B25,2013-07-13 06:06:00,
2013-07-13 01:11:00,79.7,51.1,29.80,WSW,256,0.0,0.0,37,0.00,,,0.00,WeatherCatV1.15B25,2013-07-13 06:11:00,
2013-07-13 01:16:00,79.3,50.8,29.80,WSW,256,0.0,0.0,37,0.00,,,0.00,WeatherCatV1.15B25,2013-07-13 06:16:00,
2013-07-13 01:21:00,79.2,51.3,29.80,WSW,256,0.0,0.0,38,0.00,,,0.00,WeatherCatV1.15B25,2013-07-13 06:21:00,
2013-07-13 01:26:00,79.0,52.6,29.80,WSW,256,0.0,0.0,40,0.00,,,0.00,WeatherCatV1.15B25,2013-07-13 06:26:00,
2013-07-13 01:31:00,79.5,53.1,29.80,WSW,256,0.0,0.0,40,0.00,,,0.00,WeatherCatV1.15B25,2013-07-13 06:31:00,
2013-07-13 01:36:00,79.2,52.7,29.80,WSW,256,0.0,0.0,40,0.00,,,0.00,WeatherCatV1.15B25,2013-07-13 06:36:00,
2013-07-13 01:41:00,78.8,52.4,29.80,WSW,256,0.0,0.0,40,0.00,,,0.00,WeatherCatV1.15B25,2013-07-13 06:41:00,
2013-07-13 01:46:00,78.6,52.3,29.80,WSW,256,0.0,0.0,40,0.00,,,0.00,WeatherCatV1.15B25,2013-07-13 06:46:00,
2013-07-13 01:51:00,78.3,52.6,29.80,WSW,256,0.0,0.0,41,0.00,,,0.00,WeatherCatV1.15B25,2013-07-13 06:51:00,
2013-07-13 01:56:00,78.6,53.6,29.80,WSW,256,0.0,0.0,42,0.00,,,0.00,WeatherCatV1.15B25,2013-07-13 06:56:00,
2013-07-13 02:01:00,78.4,53.4,29.80,WSW,256,0.0,0.0,42,0.00,,,0.00,WeatherCatV1.15B25,2013-07-13 07:01:00,
2013-07-13 02:06:00,78.3,53.3,29.80,WSW,256,0.0,0.0,42,0.00,,,0.00,WeatherCatV1.15B25,2013-07-13 07:06:00,
2013-07-13 02:11:00,78.1,53.1,29.80,WSW,256,0.0,0.0,42,0.00,,,0.00,WeatherCatV1.15B25,2013-07-13 07:11:00,
2013-07-13 02:16:00,77.9,52.9,29.80,WSW,256,0.0,0.0,42,0.00,,,0.00,WeatherCatV1.15B25,2013-07-13 07:16:00,
2013-07-13 02:21:00,78.3,54.5,29.80,WSW,256,0.0,0.0,44,0.00,,,0.00,WeatherCatV1.15B25,2013-07-13 07:21:00,
2013-07-13 02:26:00,78.4,54.7,29.80,WSW,256,0.0,0.0,44,0.00,,,0.00,WeatherCatV1.15B25,2013-07-13 07:26:00,
2013-07-13 02:31:00,78.3,53.9,29.80,WSW,256,0.0,0.0,43,0.00,,,0.00,WeatherCatV1.15B25,2013-07-13 07:31:00,
2013-07-13 02:36:00,77.9,54.2,29.80,WSW,256,0.0,0.0,44,0.00,,,0.00,WeatherCatV1.15B25,2013-07-13 07:36:00,
2013-07-13 02:41:00,77.7,54.0,29.80,WSW,256,0.0,0.0,44,0.00,,,0.00,WeatherCatV1.15B25,2013-07-13 07:41:00,
2013-07-13 02:46:00,77.7,54.7,29.80,WSW,256,0.0,0.0,45,0.00,,,0.00,WeatherCatV1.15B25,2013-07-13 07:46:00,
2013-07-13 02:51:00,78.3,55.8,29.80,WSW,256,0.0,0.0,46,0.00,,,0.00,WeatherCatV1.15B25,2013-07-13 07:51:00,
2013-07-13 02:56:00,78.1,55.0,29.80,WSW,256,0.0,0.0,45,0.00,,,0.00,WeatherCatV1.15B25,2013-07-13 07:56:00,
2013-07-13 03:01:00,77.7,54.7,29.80,WSW,256,0.0,0.0,45,0.00,,,0.00,WeatherCatV1.15B25,2013-07-13 08:01:00,
2013-07-13 03:06:00,77.5,54.5,29.80,WSW,256,0.0,0.0,45,0.00,,,0.00,WeatherCatV1.15B25,2013-07-13 08:06:00,
2013-07-13 03:12:00,77.4,54.9,29.80,WSW,256,0.0,0.0,46,0.00,,,0.00,WeatherCatV1.15B25,2013-07-13 08:12:00,
2013-07-13 03:17:00,77.2,54.8,29.80,WSW,256,0.0,0.0,46,0.00,,,0.00,WeatherCatV1.15B25,2013-07-13 08:17:00,
2013-07-13 03:22:00,77.7,56.4,29.80,WSW,256,0.0,0.0,48,0.00,,,0.00,WeatherCatV1.15B25,2013-07-13 08:22:00,
2013-07-13 03:27:00,77.5,55.7,29.80,WSW,256,0.0,0.0,47,0.00,,,0.00,WeatherCatV1.15B25,2013-07-13 08:27:00,
2013-07-13 03:32:00,77.2,55.4,29.80,WSW,256,0.0,0.0,47,0.00,,,0.00,WeatherCatV1.15B25,2013-07-13 08:32:00,
2013-07-13 03:37:00,76.8,55.0,29.80,WSW,256,0.0,0.0,47,0.00,,,0.00,WeatherCatV1.15B25,2013-07-13 08:37:00,
2013-07-13 03:42:00,76.6,55.5,29.80,WSW,256,0.0,0.0,48,0.00,,,0.00,WeatherCatV1.15B25,2013-07-13 08:42:00,
2013-07-13 03:47:00,76.6,55.5,29.80,WSW,256,0.0,0.0,48,0.00,,,0.00,WeatherCatV1.15B25,2013-07-13 08:47:00,
2013-07-13 03:52:00,77.0,56.9,29.80,WSW,256,0.0,0.0,50,0.00,,,0.00,WeatherCatV1.15B25,2013-07-13 08:52:00,
2013-07-13 03:57:00,77.2,57.1,29.80,WSW,256,0.0,0.0,50,0.00,,,0.00,WeatherCatV1.15B25,2013-07-13 08:57:00,
2013-07-13 04:02:00,77.0,56.9,29.80,WSW,256,0.0,0.0,50,0.00,,,0.00,WeatherCatV1.15B25,2013-07-13 09:02:00,
2013-07-13 04:07:00,76.8,57.3,29.80,WSW,256,0.0,0.0,51,0.00,,,0.00,WeatherCatV1.15B25,2013-07-13 09:07:00,
2013-07-13 04:12:00,76.6,57.1,29.80,WSW,256,0.0,0.0,51,0.00,,,0.00,WeatherCatV1.15B25,2013-07-13 09:12:00,
2013-07-13 04:17:00,76.6,57.7,29.80,WSW,256,0.0,0.0,52,0.00,,,0.00,WeatherCatV1.15B25,2013-07-13 09:17:00,
2013-07-13 04:22:00,76.6,58.2,29.80,WSW,256,0.0,0.0,53,0.00,,,0.00,WeatherCatV1.15B25,2013-07-13 09:22:00,
2013-07-13 04:27:00,76.8,58.9,29.80,WSW,256,0.0,0.0,54,0.00,,,0.00,WeatherCatV1.15B25,2013-07-13 09:27:00,
2013-07-13 04:32:00,76.5,58.0,29.80,WSW,256,0.0,0.0,53,0.00,,,0.00,WeatherCatV1.15B25,2013-07-13 09:32:00,
2013-07-13 04:37:00,76.3,57.9,29.80,WSW,256,0.0,0.0,53,0.00,,,0.00,WeatherCatV1.15B25,2013-07-13 09:37:00,
2013-07-13 04:42:00,76.3,58.4,29.80,WSW,256,0.0,0.0,54,0.00,,,0.00,WeatherCatV1.15B25,2013-07-13 09:42:00,
2013-07-13 04:47:00,76.1,58.2,29.80,WSW,256,0.0,0.0,54,0.00,,,0.00,WeatherCatV1.15B25,2013-07-13 09:47:00,
2013-07-13 04:52:00,75.9,58.1,29.80,WSW,256,0.0,0.0,54,0.00,,,0.00,WeatherCatV1.15B25,2013-07-13 09:52:00,
2013-07-13 04:57:00,75.9,58.6,29.80,WSW,256,0.0,0.0,55,0.00,,,0.00,WeatherCatV1.15B25,2013-07-13 09:57:00,
2013-07-13 05:02:00,76.3,59.9,29.80,WSW,256,0.0,0.0,57,0.00,,,0.00,WeatherCatV1.15B25,2013-07-13 10:02:00,
2013-07-13 05:07:00,76.1,59.2,29.80,WSW,256,0.0,0.0,56,0.00,,,0.00,WeatherCatV1.15B25,2013-07-13 10:07:00,
2013-07-13 05:12:00,75.7,58.9,29.80,WSW,256,0.0,0.0,56,0.00,,,0.00,WeatherCatV1.15B25,2013-07-13 10:12:00,
2013-07-13 05:17:00,75.6,58.7,29.80,WSW,256,0.0,0.0,56,0.00,,,0.00,WeatherCatV1.15B25,2013-07-13 10:17:00,
2013-07-13 05:22:00,75.4,59.1,29.80,WSW,256,0.0,0.0,57,0.00,,,0.00,WeatherCatV1.15B25,2013-07-13 10:22:00,
2013-07-13 05:27:00,75.2,58.9,29.80,WSW,256,0.0,0.0,57,0.00,,,0.00,WeatherCatV1.15B25,2013-07-13 10:27:00,
2013-07-13 05:32:00,75.2,59.4,29.80,WSW,256,0.0,0.0,58,0.00,,,0.00,WeatherCatV1.15B25,2013-07-13 10:32:00,
2013-07-13 05:37:00,75.4,60.0,29.80,WSW,256,0.0,0.0,59,0.00,,,0.00,WeatherCatV1.15B25,2013-07-13 10:37:00,
2013-07-13 05:42:00,75.7,60.8,29.80,WSW,256,0.0,0.0,60,0.00,,,0.00,WeatherCatV1.15B25,2013-07-13 10:42:00,
2013-07-13 05:47:00,75.6,60.7,29.80,WSW,256,0.0,0.0,60,0.00,,,0.00,WeatherCatV1.15B25,2013-07-13 10:47:00,
2013-07-13 05:52:00,75.4,60.5,29.80,WSW,256,0.0,0.0,60,0.00,,,0.00,WeatherCatV1.15B25,2013-07-13 10:52:00,
2013-07-13 05:57:00,75.2,60.3,29.80,WSW,256,0.0,0.0,60,0.00,,,0.00,WeatherCatV1.15B25,2013-07-13 10:57:00,
2013-07-13 06:02:00,75.2,60.8,29.80,WSW,256,0.0,0.0,61,0.00,,,0.00,WeatherCatV1.15B25,2013-07-13 11:02:00,
2013-07-13 06:07:00,75.6,61.6,29.80,WSW,256,0.0,0.0,62,0.00,,,0.00,WeatherCatV1.15B25,2013-07-13 11:07:00,
2013-07-13 06:12:00,76.3,62.7,29.80,WSW,256,0.0,0.0,63,0.00,,,0.00,WeatherCatV1.15B25,2013-07-13 11:12:00,
2013-07-13 06:17:00,76.1,62.1,29.80,WSW,256,0.0,0.0,62,0.00,,,0.00,WeatherCatV1.15B25,2013-07-13 11:17:00,
2013-07-13 06:22:00,75.6,61.1,29.80,WSW,256,0.0,0.0,61,0.00,,,0.00,WeatherCatV1.15B25,2013-07-13 11:22:00,
2013-07-13 06:27:00,75.4,61.0,29.80,WSW,256,0.0,0.0,61,0.00,,,0.00,WeatherCatV1.15B25,2013-07-13 11:27:00,
2013-07-13 06:32:00,75.6,61.1,29.80,WSW,256,0.0,0.0,61,0.00,,,0.00,WeatherCatV1.15B25,2013-07-13 11:32:00,
2013-07-13 06:37:00,75.2,60.8,29.83,WSW,256,0.0,0.0,61,0.00,,,0.00,WeatherCatV1.15B25,2013-07-13 11:37:00,
2013-07-13 06:42:00,74.8,60.5,29.83,WSW,256,0.0,0.0,61,0.00,,,0.00,WeatherCatV1.15B25,2013-07-13 11:42:00,
2013-07-13 06:47:00,74.8,60.5,29.83,WSW,256,0.0,0.0,61,0.00,,,0.00,WeatherCatV1.15B25,2013-07-13 11:47:00,
2013-07-13 06:52:00,75.2,61.3,29.83,WSW,256,0.0,0.0,62,0.00,,,0.00,WeatherCatV1.15B25,2013-07-13 11:52:00,
2013-07-13 06:57:00,74.8,60.5,29.83,WSW,256,0.0,0.0,61,0.00,,,0.00,WeatherCatV1.15B25,2013-07-13 11:57:00,
2013-07-13 07:02:00,74.5,60.1,29.83,WSW,256,0.0,0.0,61,0.00,,,0.00,WeatherCatV1.15B25,2013-07-13 12:02:00,
2013-07-13 07:07:00,74.8,60.9,29.83,WSW,256,0.0,0.0,62,0.00,,,0.00,WeatherCatV1.15B25,2013-07-13 12:07:00,
2013-07-13 07:12:00,75.4,61.4,29.83,WSW,256,0.0,0.0,62,0.00,,,0.00,WeatherCatV1.15B25,2013-07-13 12:12:00,
2013-07-13 07:17:00,75.2,61.3,29.83,WSW,256,0.0,0.0,62,0.00,,,0.00,WeatherCatV1.15B25,2013-07-13 12:17:00,
2013-07-13 07:22:00,75.0,61.1,29.83,WSW,256,0.0,0.0,62,0.00,,,0.00,WeatherCatV1.15B25,2013-07-13 12:22:00,
2013-07-13 07:27:00,75.4,61.9,29.83,WSW,256,0.0,0.0,63,0.00,,,0.00,WeatherCatV1.15B25,2013-07-13 12:27:00,
2013-07-13 07:32:00,76.1,62.6,29.83,WSW,256,0.0,0.0,63,0.00,,,0.00,WeatherCatV1.15B25,2013-07-13 12:32:00,
2013-07-13 07:37:00,76.3,62.7,29.83,WSW,256,0.0,0.0,63,0.00,,,0.00,WeatherCatV1.15B25,2013-07-13 12:37:00,
2013-07-13 07:42:00,76.6,63.1,29.83,WSW,256,0.0,0.0,63,0.00,,,0.00,WeatherCatV1.15B25,2013-07-13 12:42:00,
2013-07-13 07:47:00,77.5,64.4,29.83,WSW,256,0.0,0.0,64,0.00,,,0.00,WeatherCatV1.15B25,2013-07-13 12:47:00,
2013-07-13 07:52:00,78.3,65.1,29.83,WSW,256,0.0,0.0,64,0.00,,,0.00,WeatherCatV1.15B25,2013-07-13 12:52:00,
2013-07-13 07:57:00,78.4,65.2,29.83,WSW,256,0.0,0.0,64,0.00,,,0.00,WeatherCatV1.15B25,2013-07-13 12:57:00,
2013-07-13 08:02:00,78.8,65.1,29.83,WSW,256,0.0,0.0,63,0.00,,,0.00,WeatherCatV1.15B25,2013-07-13 13:02:00,
2013-07-13 08:07:00,79.7,66.0,29.85,NW,311,0.0,0.0,63,0.00,,,0.00,WeatherCatV1.15B25,2013-07-13 13:07:00,
2013-07-13 08:12:00,80.2,66.0,29.85,West,277,0.0,0.0,62,0.00,,,0.00,WeatherCatV1.15B25,2013-07-13 13:12:00,
2013-07-13 08:17:00,80.8,65.6,29.85,NW,305,0.0,4.9,60,0.00,,,0.00,WeatherCatV1.15B25,2013-07-13 13:17:00,
2013-07-13 08:22:00,82.4,66.6,29.85,West,281,0.0,0.0,59,0.00,,,0.00,WeatherCatV1.15B25,2013-07-13 13:22:00,
2013-07-13 08:27:00,83.8,65.4,29.85,NNW,335,0.0,0.0,54,0.00,,,0.00,WeatherCatV1.15B25,2013-07-13 13:27:00,
2013-07-13 08:32:00,84.2,61.8,29.85,NW,326,0.0,0.0,47,0.00,,,0.00,WeatherCatV1.15B25,2013-07-13 13:32:00,
2013-07-13 08:37:00,84.2,59.2,29.85,North,2,0.0,3.1,43,0.00,,,0.00,WeatherCatV1.15B25,2013-07-13 13:37:00,
2013-07-13 08:42:00,84.6,58.2,29.85,NW,313,0.0,3.1,41,0.00,,,0.00,WeatherCatV1.15B25,2013-07-13 13:42:00,
2013-07-13 08:47:00,84.7,57.7,29.85,NW,320,2.7,2.7,40,0.00,,,0.00,WeatherCatV1.15B25,2013-07-13 13:47:00,
2013-07-13 08:52:00,84.6,56.8,29.85,NNW,335,3.1,3.1,39,0.00,,,0.00,WeatherCatV1.15B25,2013-07-13 13:52:00,
2013-07-13 08:57:00,84.6,56.8,29.85,NNW,342,2.7,4.0,39,0.00,,,0.00,WeatherCatV1.15B25,2013-07-13 13:57:00,
2013-07-13 09:02:00,85.3,57.5,29.85,SSW,193,3.6,5.4,39,0.00,,,0.00,WeatherCatV1.15B25,2013-07-13 14:02:00,
2013-07-13 09:07:00,85.5,54.7,29.85,WNW,289,0.0,5.4,35,0.00,,,0.00,WeatherCatV1.15B25,2013-07-13 14:07:00,
2013-07-13 09:12:00,85.8,55.0,29.85,WNW,284,3.1,5.4,35,0.00,,,0.00,WeatherCatV1.15B25,2013-07-13 14:12:00,
2013-07-13 09:17:00,86.2,54.5,29.85,NNW,345,0.0,2.7,34,0.00,,,0.00,WeatherCatV1.15B25,2013-07-13 14:17:00,
2013-07-13 09:22:00,87.4,53.9,29.85,NE,44,4.0,4.9,32,0.00,,,0.00,WeatherCatV1.15B25,2013-07-13 14:22:00,
2013-07-13 09:27:00,88.2,51.9,29.85,NE,47,0.0,5.8,29,0.00,,,0.00,WeatherCatV1.15B25,2013-07-13 14:27:00,
2013-07-13 09:32:00,88.7,51.4,29.85,North,357,0.0,4.0,28,0.00,,,0.00,WeatherCatV1.15B25,2013-07-13 14:32:00,
2013-07-13 09:37:00,89.6,46.9,29.85,WNW,284,0.0,5.8,23,0.00,,,0.00,WeatherCatV1.15B25,2013-07-13 14:37:00,
2013-07-13 09:42:00,90.1,44.9,29.85,WNW,297,0.0,0.0,21,0.00,,,0.00,WeatherCatV1.15B25,2013-07-13 14:42:00,
2013-07-13 09:47:00,90.1,42.3,29.85,North,1,4.9,4.9,19,0.00,,,0.00,WeatherCatV1.15B25,2013-07-13 14:47:00,
2013-07-13 09:52:00,90.7,42.7,29.85,NW,321,2.7,3.6,19,0.00,,,0.00,WeatherCatV1.15B25,2013-07-13 14:52:00,
2013-07-13 09:57:00,91.6,42.0,29.85,WSW,249,0.0,0.0,18,0.00,,,0.00,WeatherCatV1.15B25,2013-07-13 14:57:00,
2013-07-13 10:02:00,91.4,40.4,29.85,West,261,0.0,3.6,17,0.00,,,0.00,WeatherCatV1.15B25,2013-07-13 15:02:00,
2013-07-13 10:07:00,91.6,40.6,29.85,West,281,0.0,0.0,17,0.00,,,0.00,WeatherCatV1.15B25,2013-07-13 15:07:00,
2013-07-13 10:12:00,92.8,36.6,29.85,West,281,2.7,4.9,14,0.00,,,0.00,WeatherCatV1.15B25,2013-07-13 15:12:00,
2013-07-13 10:17:00,94.1,31.5,29.85,NNW,327,2.2,5.4,11,0.00,,,0.00,WeatherCatV1.15B25,2013-07-13 15:17:00,
2013-07-13 10:22:00,94.1,26.6,29.85,West,275,3.1,4.0,9,0.00,,,0.00,WeatherCatV1.15B25,2013-07-13 15:22:00,
2013-07-13 10:27:00,94.6,27.0,29.85,NW,310,0.0,5.4,9,0.00,,,0.00,WeatherCatV1.15B25,2013-07-13 15:27:00,
2013-07-13 10:32:00,95.0,27.3,29.85,SW,223,4.0,4.0,9,0.00,,,0.00,WeatherCatV1.15B25,2013-07-13 15:32:00,
2013-07-13 10:37:00,95.4,27.6,29.83,WNW,283,3.1,8.1,9,0.00,,,0.00,WeatherCatV1.15B25,2013-07-13 15:37:00,
2013-07-13 10:42:00,94.6,27.0,29.83,WSW,237,0.0,0.0,9,0.00,,,0.00,WeatherCatV1.15B25,2013-07-13 15:42:00,
2013-07-13 10:47:00,95.0,27.3,29.83,NW,313,3.1,4.0,9,0.00,,,0.00,WeatherCatV1.15B25,2013-07-13 15:47:00,
2013-07-13 10:52:00,95.7,27.8,29.83,WSW,250,2.7,4.0,9,0.00,,,0.00,WeatherCatV1.15B25,2013-07-13 15:52:00,
2013-07-13 10:57:00,96.1,28.1,29.83,West,269,0.0,5.8,9,0.00,,,0.00,WeatherCatV1.15B25,2013-07-13 15:57:00,
2013-07-13 11:02:00,96.3,28.2,29.83,WNW,290,0.0,0.0,9,0.00,,,0.00,WeatherCatV1.15B25,2013-07-13 16:02:00,
2013-07-13 11:07:00,97.0,25.9,29.83,NW,319,0.0,0.0,8,0.00,,,0.00,WeatherCatV1.15B25,2013-07-13 16:07:00,
2013-07-13 11:12:00,96.6,28.5,29.83,WNW,300,3.1,5.4,9,0.00,,,0.00,WeatherCatV1.15B25,2013-07-13 16:12:00,
2013-07-13 11:17:00,96.8,25.8,29.83,WNW,297,0.0,2.7,8,0.00,,,0.00,WeatherCatV1.15B25,2013-07-13 16:17:00,
2013-07-13 11:22:00,96.6,28.5,29.83,North,353,4.0,4.0,9,0.00,,,0.00,WeatherCatV1.15B25,2013-07-13 16:22:00,
2013-07-13 11:27:00,97.9,26.6,29.83,WNW,293,0.0,2.7,8,0.00,,,0.00,WeatherCatV1.15B25,2013-07-13 16:27:00,
2013-07-13 11:32:00,99.1,27.5,29.83,NW,306,5.4,5.4,8,0.00,,,0.00,WeatherCatV1.15B25,2013-07-13 16:32:00,
2013-07-13 11:37:00,99.5,27.8,29.83,NNE,14,2.7,4.0,8,0.00,,,0.00,WeatherCatV1.15B25,2013-07-13 16:37:00,
2013-07-13 11:42:00,99.3,27.6,29.83,NW,307,2.7,4.0,8,0.00,,,0.00,WeatherCatV1.15B25,2013-07-13 16:42:00,
2013-07-13 11:47:00,98.4,27.0,29.83,NW,311,2.7,3.1,8,0.00,,,0.00,WeatherCatV1.15B25,2013-07-13 16:47:00,
2013-07-13 11:52:00,98.6,27.1,29.83,NNW,335,2.7,6.3,8,0.00,,,0.00,WeatherCatV1.15B25,2013-07-13 16:52:00,
2013-07-13 11:57:00,98.8,27.2,29.83,WNW,285,3.6,3.6,8,0.00,,,0.00,WeatherCatV1.15B25,2013-07-13 16:57:00,
2013-07-13 12:02:00,99.3,27.6,29.83,West,275,0.0,5.8,8,0.00,,,0.00,WeatherCatV1.15B25,2013-07-13 17:02:00,
2013-07-13 12:07:00,99.5,27.8,29.83,ESE,116,0.0,0.0,8,0.00,,,0.00,WeatherCatV1.15B25,2013-07-13 17:07:00,
2013-07-13 12:12:00,99.0,27.4,29.83,East,96,0.0,0.0,8,0.00,,,0.00,WeatherCatV1.15B25,2013-07-13 17:12:00,
2013-07-13 12:17:00,99.5,27.8,29.83,NW,316,2.2,2.2,8,0.00,,,0.00,WeatherCatV1.15B25,2013-07-13 17:17:00,
2013-07-13 12:22:00,99.3,27.6,29.83,NE,55,0.0,0.0,8,0.00,,,0.00,WeatherCatV1.15B25,2013-07-13 17:22:00,
2013-07-13 12:27:00,98.2,26.8,29.83,WNW,293,0.0,0.0,8,0.00,,,0.00,WeatherCatV1.15B25,2013-07-13 17:27:00,
2013-07-13 12:32:00,99.0,27.4,29.83,WSW,256,5.4,5.4,8,0.00,,,0.00,WeatherCatV1.15B25,2013-07-13 17:32:00,
2013-07-13 12:37:00,100.2,28.3,29.83,NW,324,0.0,5.8,8,0.00,,,0.00,WeatherCatV1.15B25,2013-07-13 17:37:00,
2013-07-13 12:42:00,101.1,25.7,29.83,ENE,70,2.7,4.0,7,0.00,,,0.00,WeatherCatV1.15B25,2013-07-13 17:42:00,
2013-07-13 12:47:00,102.2,26.5,29.83,WSW,255,0.0,3.6,7,0.00,,,0.00,WeatherCatV1.15B25,2013-07-13 17:47:00,
2013-07-13 12:52:00,102.9,27.0,29.80,WNW,295,0.0,4.0,7,0.00,,,0.00,WeatherCatV1.15B25,2013-07-13 17:52:00,
2013-07-13 12:57:00,101.8,26.2,29.80,South,169,2.7,3.6,7,0.00,,,0.00,WeatherCatV1.15B25,2013-07-13 17:57:00,
2013-07-13 13:02:00,100.6,25.3,29.80,NW,312,0.0,0.0,7,0.00,,,0.00,WeatherCatV1.15B25,2013-07-13 18:02:00,
2013-07-13 13:07:00,102.2,26.5,29.80,North,11,3.6,5.8,7,0.00,,,0.00,WeatherCatV1.15B25,2013-07-13 18:07:00,
2013-07-13 13:12:00,104.5,28.2,29.80,SSW,212,0.0,2.7,7,0.00,,,0.00,WeatherCatV1.15B25,2013-07-13 18:12:00,
2013-07-13 13:17:00,105.3,28.7,29.80,WNW,294,4.0,4.0,7,0.00,,,0.00,WeatherCatV1.15B25,2013-07-13 18:17:00,
2013-07-13 13:22:00,105.1,28.6,29.80,NNW,346,2.7,5.8,7,0.00,,,0.00,WeatherCatV1.15B25,2013-07-13 18:22:00,
2013-07-13 13:27:00,103.6,27.5,29.80,North,2,3.1,5.4,7,0.00,,,0.00,WeatherCatV1.15B25,2013-07-13 18:27:00,
2013-07-13 13:32:00,104.7,28.3,29.80,North,357,3.1,4.0,7,0.00,,,0.00,WeatherCatV1.15B25,2013-07-13 18:32:00,
2013-07-13 13:37:00,105.1,28.6,29.80,North,7,0.0,3.6,7,0.00,,,0.00,WeatherCatV1.15B25,2013-07-13 18:37:00,
2013-07-13 13:42:00,106.7,26.0,29.80,NNW,337,0.0,3.1,6,0.00,,,0.00,WeatherCatV1.15B25,2013-07-13 18:42:00,
2013-07-13 13:47:00,107.6,26.6,29.80,NNW,332,0.0,2.2,6,0.00,,,0.00,WeatherCatV1.15B25,2013-07-13 18:47:00,
2013-07-13 13:52:00,108.3,27.1,29.80,West,261,0.0,3.1,6,0.00,,,0.00,WeatherCatV1.15B25,2013-07-13 18:52:00,
2013-07-13 13:57:00,107.8,26.7,29.80,SW,232,0.0,0.0,6,0.00,,,0.00,WeatherCatV1.15B25,2013-07-13 18:57:00,
2013-07-13 14:02:00,108.0,26.9,29.80,West,279,2.2,2.7,6,0.00,,,0.00,WeatherCatV1.15B25,2013-07-13 19:02:00,
2013-07-13 14:07:00,108.3,27.1,29.77,North,357,0.0,0.0,6,0.00,,,0.00,WeatherCatV1.15B25,2013-07-13 19:07:00,
2013-07-13 14:12:00,108.9,27.5,29.77,North,353,0.0,0.0,6,0.00,,,0.00,WeatherCatV1.15B25,2013-07-13 19:12:00,
2013-07-13 14:17:00,107.2,26.4,29.77,SSW,209,0.0,3.1,6,0.00,,,0.00,WeatherCatV1.15B25,2013-07-13 19:17:00,
2013-07-13 14:22:00,105.8,25.3,29.77,North,2,0.0,0.0,6,0.00,,,0.00,WeatherCatV1.15B25,2013-07-13 19:22:00,
2013-07-13 14:27:00,106.9,26.1,29.77,North,353,2.7,5.4,6,0.00,,,0.00,WeatherCatV1.15B25,2013-07-13 19:27:00,
2013-07-13 14:32:00,107.8,26.7,29.77,NW,320,2.2,3.6,6,0.00,,,0.00,WeatherCatV1.15B25,2013-07-13 19:32:00,
2013-07-13 14:37:00,108.1,27.0,29.77,West,272,0.0,3.1,6,0.00,,,0.00,WeatherCatV1.15B25,2013-07-13 19:37:00,
2013-07-13 14:42:00,107.4,26.5,29.77,North,353,2.2,3.1,6,0.00,,,0.00,WeatherCatV1.15B25,2013-07-13 19:42:00,
2013-07-13 14:47:00,107.8,26.7,29.77,East,100,0.0,3.1,6,0.00,,,0.00,WeatherCatV1.15B25,2013-07-13 19:47:00,
2013-07-13 14:52:00,106.7,26.0,29.77,WNW,282,0.0,0.0,6,0.00,,,0.00,WeatherCatV1.15B25,2013-07-13 19:52:00,
2013-07-13 14:57:00,107.2,26.4,29.77,NNW,337,0.0,4.0,6,0.00,,,0.00,WeatherCatV1.15B25,2013-07-13 19:57:00,
2013-07-13 15:02:00,107.8,26.7,29.77,North,353,0.0,4.9,6,0.00,,,0.00,WeatherCatV1.15B25,2013-07-13 20:02:00,
2013-07-13 15:07:00,108.3,27.1,29.77,NNE,28,0.0,0.0,6,0.00,,,0.00,WeatherCatV1.15B25,2013-07-13 20:07:00,
2013-07-13 15:12:00,107.6,26.6,29.77,SSE,164,0.0,0.0,6,0.00,,,0.00,WeatherCatV1.15B25,2013-07-13 20:12:00,
2013-07-13 15:17:00,106.3,25.7,29.77,SE,145,0.0,3.1,6,0.00,,,0.00,WeatherCatV1.15B25,2013-07-13 20:17:00,
2013-07-13 15:22:00,106.9,26.1,29.74,SSE,152,0.0,6.3,6,0.00,,,0.00,WeatherCatV1.15B25,2013-07-13 20:22:00,
2013-07-13 15:27:00,108.7,27.4,29.74,NW,317,3.1,5.4,6,0.00,,,0.00,WeatherCatV1.15B25,2013-07-13 20:27:00,
2013-07-13 15:32:00,109.6,23.6,29.74,ESE,108,2.2,2.2,5,0.00,,,0.00,WeatherCatV1.15B25,2013-07-13 20:32:00,
2013-07-13 15:37:00,108.3,27.1,29.74,SE,134,0.0,3.6,6,0.00,,,0.00,WeatherCatV1.15B25,2013-07-13 20:37:00,
2013-07-13 15:42:00,107.8,26.7,29.74,NW,310,0.0,3.1,6,0.00,,,0.00,WeatherCatV1.15B25,2013-07-13 20:42:00,
2013-07-13 15:47:00,109.2,27.8,29.74,West,279,0.0,3.6,6,0.00,,,0.00,WeatherCatV1.15B25,2013-07-13 20:47:00,
2013-07-13 15:52:00,108.7,27.4,29.74,WNW,287,0.0,0.0,6,0.00,,,0.00,WeatherCatV1.15B25,2013-07-13 20:52:00,
2013-07-13 15:57:00,107.8,26.7,29.74,WNW,303,4.5,4.5,6,0.00,,,0.00,WeatherCatV1.15B25,2013-07-13 20:57:00,
2013-07-13 16:02:00,108.5,27.2,29.74,WNW,289,6.3,6.3,6,0.00,,,0.00,WeatherCatV1.15B25,2013-07-13 21:02:00,
2013-07-13 16:07:00,106.2,25.6,29.74,NNW,345,0.0,3.6,6,0.00,,,0.00,WeatherCatV1.15B25,2013-07-13 21:07:00,
2013-07-13 16:12:00,104.0,27.8,29.74,ESE,109,0.0,3.6,7,0.00,,,0.00,WeatherCatV1.15B25,2013-07-13 21:12:00,
2013-07-13 16:17:00,102.0,26.4,29.74,East,94,0.0,0.0,7,0.00,,,0.00,WeatherCatV1.15B25,2013-07-13 21:17:00,
2013-07-13 16:22:00,101.7,26.1,29.74,East,94,0.0,0.0,7,0.00,,,0.00,WeatherCatV1.15B25,2013-07-13 21:22:00,
2013-07-13 16:27:00,100.8,25.5,29.74,SSE,160,6.3,6.3,7,0.00,,,0.00,WeatherCatV1.15B25,2013-07-13 21:27:00,
2013-07-13 16:32:00,100.2,28.3,29.74,East,87,2.7,4.9,8,0.00,,,0.00,WeatherCatV1.15B25,2013-07-13 21:32:00,
2013-07-13 16:37:00,100.2,28.3,29.74,East,98,0.0,4.0,8,0.00,,,0.00,WeatherCatV1.15B25,2013-07-13 21:37:00,
2013-07-13 16:42:00,100.0,28.2,29.74,SE,132,4.0,4.9,8,0.00,,,0.00,WeatherCatV1.15B25,2013-07-13 21:42:00,
2013-07-13 16:47:00,99.3,27.6,29.74,ESE,121,2.2,5.8,8,0.00,,,0.00,WeatherCatV1.15B25,2013-07-13 21:47:00,
2013-07-13 16:52:00,98.8,27.2,29.74,SSE,152,0.0,0.0,8,0.00,,,0.00,WeatherCatV1.15B25,2013-07-13 21:52:00,
2013-07-13 16:57:00,97.9,26.6,29.74,South,184,4.0,6.3,8,0.00,,,0.00,WeatherCatV1.15B25,2013-07-13 21:57:00,
2013-07-13 17:02:00,96.3,28.2,29.74,ESE,108,2.7,5.8,9,0.00,,,0.00,WeatherCatV1.15B25,2013-07-13 22:02:00,
2013-07-13 17:07:00,93.7,26.4,29.74,East,101,5.4,8.3,9,0.00,,,0.00,WeatherCatV1.15B25,2013-07-13 22:07:00,
2013-07-13 17:12:00,92.8,32.7,29.74,ESE,103,5.4,8.7,12,0.00,,,0.00,WeatherCatV1.15B25,2013-07-13 22:12:00,
2013-07-13 17:17:00,92.1,41.0,29.74,East,92,2.7,3.6,17,0.00,,,0.00,WeatherCatV1.15B25,2013-07-13 22:17:00,
2013-07-13 17:22:00,91.9,40.9,29.74,SE,137,2.7,3.1,17,0.00,,,0.00,WeatherCatV1.15B25,2013-07-13 22:22:00,
2013-07-13 17:27:00,90.9,44.2,29.74,ESE,114,2.2,3.6,20,0.00,,,0.00,WeatherCatV1.15B25,2013-07-13 22:27:00,
2013-07-13 17:32:00,89.6,49.1,29.74,ESE,105,2.2,2.2,25,0.00,,,0.08,WeatherCatV1.15B25,2013-07-13 22:32:00,
2013-07-13 17:37:00,88.2,51.9,29.74,SSW,208,0.0,0.0,29,0.39,,,0.08,WeatherCatV1.15B25,2013-07-13 22:37:00,
2013-07-13 17:42:00,86.7,55.8,29.74,WNW,294,4.5,4.5,35,0.47,,,0.16,WeatherCatV1.15B25,2013-07-13 22:42:00,
2013-07-13 17:47:00,84.9,57.2,29.74,WSW,242,3.6,3.6,39,0.47,,,0.16,WeatherCatV1.15B25,2013-07-13 22:47:00,
2013-07-13 17:52:00,84.2,57.9,29.77,West,275,3.6,5.8,41,0.47,,,0.16,WeatherCatV1.15B25,2013-07-13 22:52:00,
2013-07-13 17:57:00,83.3,56.4,29.77,West,263,3.6,6.7,40,0.47,,,0.16,WeatherCatV1.15B25,2013-07-13 22:57:00,
2013-07-13 18:01:00,82.0,55.3,29.77,SW,235,6.3,7.6,40,0.47,,,0.16,WeatherCatV1.15B25,2013-07-13 23:01:00,
2013-07-13 18:06:00,81.3,56.0,29.77,SSE,168,4.0,4.0,42,0.47,,,0.16,WeatherCatV1.15B25,2013-07-13 23:06:00,
2013-07-13 18:11:00,81.0,57.0,29.74,West,264,0.0,5.8,44,0.47,,,0.16,WeatherCatV1.15B25,2013-07-13 23:11:00,
2013-07-13 18:16:00,81.5,57.5,29.74,SE,141,0.0,4.9,44,-99.99,,,0.16,WeatherCatV1.15B25,2013-07-13 23:16:00,
2013-07-13 18:21:00,81.7,55.7,29.74,South,182,5.4,5.4,41,0.47,,,0.16,WeatherCatV1.15B25,2013-07-13 23:21:00,
2013-07-13 18:26:00,81.5,52.7,29.74,South,179,6.3,6.3,37,-99.99,,,0.16,WeatherCatV1.15B25,2013-07-13 23:26:00,
2013-07-13 18:31:00,81.9,53.0,29.74,SSE,158,4.9,4.9,37,0.47,,,0.16,WeatherCatV1.15B25,2013-07-13 23:31:00,
2013-07-13 18:36:00,82.2,51.0,29.74,SE,144,0.0,4.0,34,0.47,,,0.16,WeatherCatV1.15B25,2013-07-13 23:36:00,
2013-07-13 18:41:00,82.4,50.4,29.74,South,176,0.0,3.6,33,0.47,,,0.16,WeatherCatV1.15B25,2013-07-13 23:41:00,
2013-07-13 18:46:00,83.1,50.2,29.74,SSE,159,0.0,0.0,32,0.47,,,0.16,WeatherCatV1.15B25,2013-07-13 23:46:00,
2013-07-13 18:51:00,82.9,48.3,29.74,SSE,165,0.0,0.0,30,0.47,,,0.16,WeatherCatV1.15B25,2013-07-13 23:51:00,
2013-07-13 18:56:00,82.6,48.0,29.71,South,176,0.0,0.0,30,0.47,,,0.16,WeatherCatV1.15B25,2013-07-13 23:56:00,
2013-07-13 19:01:00,82.6,48.9,29.71,SSE,160,0.0,0.0,31,0.47,,,0.16,WeatherCatV1.15B25,2013-07-14 00:01:00,
2013-07-13 19:06:00,82.9,50.0,29.74,SSE,160,0.0,0.0,32,0.47,,,0.16,WeatherCatV1.15B25,2013-07-14 00:06:00,
2013-07-13 19:11:00,82.9,50.0,29.74,SW,226,0.0,0.0,32,0.47,,,0.16,WeatherCatV1.15B25,2013-07-14 00:11:00,
2013-07-13 19:16:00,82.8,49.9,29.74,WSW,240,0.0,0.0,32,0.47,,,0.16,WeatherCatV1.15B25,2013-07-14 00:16:00,
2013-07-13 19:21:00,82.2,49.4,29.74,NNW,329,0.0,0.0,32,0.47,,,0.16,WeatherCatV1.15B25,2013-07-14 00:21:00,
2013-07-13 19:26:00,81.9,49.1,29.74,SSE,152,0.0,0.0,32,0.47,,,0.16,WeatherCatV1.15B25,2013-07-14 00:26:00,
2013-07-13 19:31:00,81.1,49.3,29.74,SSE,154,0.0,0.0,33,0.47,,,0.16,WeatherCatV1.15B25,2013-07-14 00:31:00,
2013-07-13 19:36:00,81.1,50.1,29.74,SE,141,0.0,0.0,34,0.47,,,0.16,WeatherCatV1.15B25,2013-07-14 00:36:00,
2013-07-13 19:41:00,81.0,49.9,29.74,South,187,0.0,0.0,34,0.47,,,0.16,WeatherCatV1.15B25,2013-07-14 00:41:00,
2013-07-13 19:46:00,80.8,49.8,29.74,South,187,0.0,0.0,34,0.47,,,0.16,WeatherCatV1.15B25,2013-07-14 00:46:00,
2013-07-13 19:51:00,80.4,50.2,29.74,South,187,0.0,0.0,35,0.00,,,0.16,WeatherCatV1.15B25,2013-07-14 00:51:00,
2013-07-13 19:56:00,81.1,53.8,29.74,South,181,0.0,0.0,39,0.00,,,0.16,WeatherCatV1.15B25,2013-07-14 00:56:00,
2013-07-13 20:01:00,81.3,52.5,29.74,South,181,0.0,0.0,37,0.00,,,0.16,WeatherCatV1.15B25,2013-07-14 01:01:00,
2013-07-13 20:06:00,81.1,52.4,29.74,South,181,0.0,0.0,37,0.00,,,0.16,WeatherCatV1.15B25,2013-07-14 01:06:00,
2013-07-13 20:11:00,81.1,52.4,29.74,South,181,0.0,0.0,37,0.00,,,0.16,WeatherCatV1.15B25,2013-07-14 01:11:00,
2013-07-13 20:16:00,80.8,52.8,29.74,South,181,0.0,0.0,38,0.00,,,0.16,WeatherCatV1.15B25,2013-07-14 01:16:00,
2013-07-13 20:21:00,81.1,55.2,29.74,SE,144,0.0,0.0,41,0.00,,,0.16,WeatherCatV1.15B25,2013-07-14 01:21:00,
2013-07-13 20:26:00,81.1,54.5,29.74,SE,144,0.0,0.0,40,0.00,,,0.16,WeatherCatV1.15B25,2013-07-14 01:26:00,
2013-07-13 20:31:00,80.4,54.5,29.74,SE,144,0.0,0.0,41,0.00,,,0.16,WeatherCatV1.15B25,2013-07-14 01:31:00,
2013-07-13 20:36:00,80.1,54.9,29.74,SE,144,0.0,0.0,42,0.00,,,0.16,WeatherCatV1.15B25,2013-07-14 01:36:00,
2013-07-13 20:41:00,79.9,54.7,29.74,SE,144,0.0,0.0,42,0.00,,,0.16,WeatherCatV1.15B25,2013-07-14 01:41:00,
2013-07-13 20:46:00,80.2,56.9,29.74,SE,144,0.0,0.0,45,0.00,,,0.16,WeatherCatV1.15B25,2013-07-14 01:46:00,
2013-07-13 20:51:00,80.1,56.2,29.74,SE,144,0.0,0.0,44,0.00,,,0.16,WeatherCatV1.15B25,2013-07-14 01:51:00,
2013-07-13 20:56:00,79.7,55.8,29.74,SE,144,0.0,0.0,44,0.00,,,0.16,WeatherCatV1.15B25,2013-07-14 01:56:00,
2013-07-13 21:01:00,79.3,56.1,29.74,SE,144,0.0,0.0,45,0.00,,,0.16,WeatherCatV1.15B25,2013-07-14 02:01:00,
2013-07-13 21:06:00,79.0,55.8,29.74,SE,144,0.0,0.0,45,0.00,,,0.16,WeatherCatV1.15B25,2013-07-14 02:06:00,
2013-07-13 21:11:00,79.7,60.5,29.74,SE,140,0.0,0.0,52,0.00,,,0.16,WeatherCatV1.15B25,2013-07-14 02:11:00,
2013-07-13 21:16:00,80.2,62.1,29.74,SE,140,0.0,0.0,54,0.00,,,0.16,WeatherCatV1.15B25,2013-07-14 02:16:00,
2013-07-13 21:21:00,80.1,60.3,29.74,SE,140,0.0,0.0,51,0.00,,,0.16,WeatherCatV1.15B25,2013-07-14 02:21:00,
2013-07-13 21:26:00,79.5,59.2,29.74,SE,140,0.0,0.0,50,0.00,,,0.16,WeatherCatV1.15B25,2013-07-14 02:26:00,
2013-07-13 21:31:00,79.2,58.9,29.74,SE,140,0.0,0.0,50,0.00,,,0.16,WeatherCatV1.15B25,2013-07-14 02:31:00,
2013-07-13 21:36:00,79.0,59.8,29.77,East,101,0.0,0.0,52,0.00,,,0.16,WeatherCatV1.15B25,2013-07-14 02:36:00,
2013-07-13 21:41:00,79.7,62.1,29.77,East,101,0.0,0.0,55,0.00,,,0.16,WeatherCatV1.15B25,2013-07-14 02:41:00,
2013-07-13 21:46:00,79.5,61.4,29.77,East,101,0.0,0.0,54,0.00,,,0.16,WeatherCatV1.15B25,2013-07-14 02:46:00,
2013-07-13 21:51:00,79.5,61.9,29.77,East,101,0.0,0.0,55,0.00,,,0.16,WeatherCatV1.15B25,2013-07-14 02:51:00,
2013-07-13 21:56:00,79.9,61.7,29.77,East,101,0.0,2.7,54,0.00,,,0.16,WeatherCatV1.15B25,2013-07-14 02:56:00,
2013-07-13 22:01:00,79.7,61.0,29.77,East,101,0.0,0.0,53,0.00,,,0.16,WeatherCatV1.15B25,2013-07-14 03:01:00,
2013-07-13 22:06:00,80.2,61.5,29.77,East,101,0.0,0.0,53,0.00,,,0.16,WeatherCatV1.15B25,2013-07-14 03:06:00,
2013-07-13 22:11:00,81.0,60.5,29.77,East,101,0.0,0.0,50,0.00,,,0.16,WeatherCatV1.15B25,2013-07-14 03:11:00,
2013-07-13 22:16:00,81.5,59.9,29.77,SSE,156,0.0,0.0,48,0.00,,,0.16,WeatherCatV1.15B25,2013-07-14 03:16:00,
2013-07-13 22:21:00,81.7,58.2,29.77,SSE,156,0.0,0.0,45,0.00,,,0.16,WeatherCatV1.15B25,2013-07-14 03:21:00,
2013-07-13 22:26:00,81.9,57.1,29.77,SSE,156,0.0,0.0,43,0.00,,,0.16,WeatherCatV1.15B25,2013-07-14 03:26:00,
2013-07-13 22:31:00,82.0,56.0,29.77,SSE,156,0.0,0.0,41,0.00,,,0.16,WeatherCatV1.15B25,2013-07-14 03:31:00,
2013-07-13 22:36:00,82.0,55.3,29.77,SSE,156,0.0,0.0,40,0.00,,,0.16,WeatherCatV1.15B25,2013-07-14 03:36:00,
2013-07-13 22:41:00,82.0,55.3,29.77,SSE,156,0.0,0.0,40,0.00,,,0.16,WeatherCatV1.15B25,2013-07-14 03:41:00,
2013-07-13 22:46:00,81.7,55.0,29.77,SSE,156,0.0,0.0,40,0.00,,,0.16,WeatherCatV1.15B25,2013-07-14 03:46:00,
2013-07-13 22:51:00,81.5,55.5,29.77,SSE,156,0.0,0.0,41,0.00,,,0.16,WeatherCatV1.15B25,2013-07-14 03:51:00,
2013-07-13 22:56:00,81.3,55.3,29.77,SSE,156,0.0,0.0,41,0.00,,,0.16,WeatherCatV1.15B25,2013-07-14 03:56:00,
2013-07-13 23:01:00,81.3,56.0,29.77,SSE,156,0.0,0.0,42,0.00,,,0.16,WeatherCatV1.15B25,2013-07-14 04:01:00,
2013-07-13 23:06:00,81.3,56.0,29.77,SSE,156,0.0,0.0,42,0.00,,,0.16,WeatherCatV1.15B25,2013-07-14 04:06:00,
2013-07-13 23:11:00,81.7,56.3,29.77,SSE,155,0.0,0.0,42,0.00,,,0.16,WeatherCatV1.15B25,2013-07-14 04:11:00,
2013-07-13 23:16:00,81.9,55.8,29.77,SSE,154,0.0,0.0,41,0.00,,,0.16,WeatherCatV1.15B25,2013-07-14 04:16:00,
2013-07-13 23:21:00,81.5,54.8,29.77,SSE,154,0.0,0.0,40,0.00,,,0.16,WeatherCatV1.15B25,2013-07-14 04:21:00,
2013-07-13 23:26:00,81.5,54.8,29.77,SSE,154,0.0,0.0,40,0.00,,,0.16,WeatherCatV1.15B25,2013-07-14 04:26:00,
2013-07-13 23:31:00,81.7,55.0,29.77,SSE,155,0.0,0.0,40,0.00,,,0.16,WeatherCatV1.15B25,2013-07-14 04:31:00,
2013-07-13 23:36:00,81.5,54.8,29.77,SSE,154,0.0,0.0,40,0.00,,,0.16,WeatherCatV1.15B25,2013-07-14 04:36:00,
2013-07-13 23:41:00,81.5,54.8,29.80,SSE,155,0.0,0.0,40,0.00,,,0.16,WeatherCatV1.15B25,2013-07-14 04:41:00,
2013-07-13 23:46:00,81.0,54.3,29.80,SSE,153,0.0,0.0,40,0.00,,,0.16,WeatherCatV1.15B25,2013-07-14 04:46:00,
2013-07-13 23:51:00,80.4,54.5,29.80,SSE,153,0.0,0.0,41,0.00,,,0.16,WeatherCatV1.15B25,2013-07-14 04:51:00,
2013-07-13 23:56:00,80.8,55.5,29.80,SSE,154,0.0,0.0,42,0.00,,,0.16,WeatherCatV1.15B25,2013-07-14 04:56:00,